sensor_id;sensor_type;location;lat;lon;timestamp;pressure;altitude;pressure_sealevel;temperature;humidity
64292;BME280;50628;51.008;13.658;2023-03-13T00:01:34;98968.84;;;7.90;100.00
64292;BME280;50628;51.008;13.658;2023-03-13T00:06:37;98966.53;;;7.87;100.00
64292;BME280;50628;51.008;13.658;2023-03-13T00:11:41;98965.19;;;7.93;100.00
64292;BME280;50628;51.008;13.658;2023-03-13T00:16:43;98963.31;;;7.95;100.00
64292;BME280;50628;51.008;13.658;2023-03-13T00:21:45;98963.41;;;7.93;100.00
64292;BME280;50628;51.008;13.658;2023-03-13T00:26:48;98971.69;;;8.08;100.00
64292;BME280;50628;51.008;13.658;2023-03-13T00:31:50;98964.38;;;8.13;100.00
64292;BME280;50628;51.008;13.658;2023-03-13T00:36:52;98972.59;;;8.18;100.00
64292;BME280;50628;51.008;13.658;2023-03-13T00:41:58;98970.69;;;8.20;100.00
64292;BME280;50628;51.008;13.658;2023-03-13T00:47:03;98970.94;;;8.17;100.00
64292;BME280;50628;51.008;13.658;2023-03-13T00:52:06;98967.53;;;8.17;100.00
64292;BME280;50628;51.008;13.658;2023-03-13T00:57:09;98961.97;;;8.21;100.00
64292;BME280;50628;51.008;13.658;2023-03-13T01:02:11;98968.28;;;8.29;100.00
64292;BME280;50628;51.008;13.658;2023-03-13T01:07:14;98960.50;;;8.29;100.00
64292;BME280;50628;51.008;13.658;2023-03-13T01:12:17;98956.28;;;8.28;100.00
64292;BME280;50628;51.008;13.658;2023-03-13T01:17:19;98947.94;;;8.24;100.00
64292;BME280;50628;51.008;13.658;2023-03-13T01:22:21;98936.88;;;8.22;100.00
64292;BME280;50628;51.008;13.658;2023-03-13T01:27:24;98934.28;;;8.22;100.00
64292;BME280;50628;51.008;13.658;2023-03-13T01:32:26;98935.91;;;8.23;100.00
64292;BME280;50628;51.008;13.658;2023-03-13T01:37:28;98920.63;;;8.20;100.00
64292;BME280;50628;51.008;13.658;2023-03-13T01:42:48;98921.81;;;8.16;100.00
64292;BME280;50628;51.008;13.658;2023-03-13T01:47:50;98925.22;;;8.16;100.00
64292;BME280;50628;51.008;13.658;2023-03-13T01:53:00;98918.84;;;8.20;100.00
64292;BME280;50628;51.008;13.658;2023-03-13T01:58:05;98919.44;;;8.24;100.00
64292;BME280;50628;51.008;13.658;2023-03-13T02:03:11;98910.53;;;8.17;100.00
64292;BME280;50628;51.008;13.658;2023-03-13T02:08:16;98908.84;;;8.16;100.00
64292;BME280;50628;51.008;13.658;2023-03-13T02:13:21;98906.34;;;8.05;100.00
64292;BME280;50628;51.008;13.658;2023-03-13T02:18:23;98897.78;;;8.04;100.00
64292;BME280;50628;51.008;13.658;2023-03-13T02:23:30;98888.41;;;7.92;100.00
64292;BME280;50628;51.008;13.658;2023-03-13T02:28:37;98895.50;;;7.90;100.00
64292;BME280;50628;51.008;13.658;2023-03-13T02:33:43;98887.78;;;7.78;100.00
64292;BME280;50628;51.008;13.658;2023-03-13T02:38:52;98882.75;;;7.77;100.00
64292;BME280;50628;51.008;13.658;2023-03-13T02:43:58;98883.13;;;7.72;100.00
64292;BME280;50628;51.008;13.658;2023-03-13T02:49:18;98883.13;;;7.72;100.00
64292;BME280;50628;51.008;13.658;2023-03-13T02:54:22;98885.69;;;7.72;100.00
64292;BME280;50628;51.008;13.658;2023-03-13T02:59:26;98880.63;;;7.71;100.00
64292;BME280;50628;51.008;13.658;2023-03-13T03:04:29;98877.81;;;7.74;100.00
64292;BME280;50628;51.008;13.658;2023-03-13T03:09:31;98872.50;;;7.75;100.00
64292;BME280;50628;51.008;13.658;2023-03-13T03:14:40;98875.53;;;7.80;100.00
64292;BME280;50628;51.008;13.658;2023-03-13T03:19:42;98862.84;;;7.77;100.00
64292;BME280;50628;51.008;13.658;2023-03-13T03:24:44;98861.88;;;7.78;100.00
64292;BME280;50628;51.008;13.658;2023-03-13T03:29:47;98848.38;;;7.75;100.00
64292;BME280;50628;51.008;13.658;2023-03-13T03:34:50;98840.34;;;7.78;100.00
64292;BME280;50628;51.008;13.658;2023-03-13T03:39:52;98822.13;;;7.89;100.00
64292;BME280;50628;51.008;13.658;2023-03-13T03:44:55;98814.91;;;7.93;100.00
64292;BME280;50628;51.008;13.658;2023-03-13T03:49:57;98808.91;;;7.92;100.00
64292;BME280;50628;51.008;13.658;2023-03-13T03:54:59;98796.50;;;7.96;100.00
64292;BME280;50628;51.008;13.658;2023-03-13T04:00:04;98789.28;;;7.90;100.00
64292;BME280;50628;51.008;13.658;2023-03-13T04:05:13;98771.53;;;7.85;100.00
64292;BME280;50628;51.008;13.658;2023-03-13T04:10:16;98752.69;;;7.83;100.00
64292;BME280;50628;51.008;13.658;2023-03-13T04:15:20;98753.66;;;7.82;100.00
64292;BME280;50628;51.008;13.658;2023-03-13T04:20:22;98753.66;;;7.82;100.00
64292;BME280;50628;51.008;13.658;2023-03-13T04:25:24;98745.72;;;7.84;100.00
64292;BME280;50628;51.008;13.658;2023-03-13T04:30:31;98736.59;;;7.79;100.00
64292;BME280;50628;51.008;13.658;2023-03-13T04:35:52;98729.13;;;7.86;100.00
64292;BME280;50628;51.008;13.658;2023-03-13T04:41:18;98711.00;;;7.86;100.00
64292;BME280;50628;51.008;13.658;2023-03-13T04:46:40;98714.56;;;7.95;100.00
64292;BME280;50628;51.008;13.658;2023-03-13T04:52:20;98707.47;;;7.97;100.00
64292;BME280;50628;51.008;13.658;2023-03-13T04:57:22;98695.34;;;7.97;100.00
64292;BME280;50628;51.008;13.658;2023-03-13T05:02:45;98677.63;;;8.02;100.00
64292;BME280;50628;51.008;13.658;2023-03-13T05:07:59;98666.03;;;8.07;100.00
64292;BME280;50628;51.008;13.658;2023-03-13T05:13:11;98657.84;;;8.11;100.00
64292;BME280;50628;51.008;13.658;2023-03-13T05:18:53;98639.56;;;8.13;100.00
64292;BME280;50628;51.008;13.658;2023-03-13T05:24:15;98622.41;;;8.21;100.00
64292;BME280;50628;51.008;13.658;2023-03-13T05:29:33;98616.09;;;8.34;100.00
64292;BME280;50628;51.008;13.658;2023-03-13T05:34:53;98605.31;;;8.38;100.00
64292;BME280;50628;51.008;13.658;2023-03-13T05:40:33;98599.34;;;8.48;100.00
64292;BME280;50628;51.008;13.658;2023-03-13T05:45:53;98587.75;;;8.52;100.00
64292;BME280;50628;51.008;13.658;2023-03-13T05:51:10;98590.72;;;8.66;100.00
64292;BME280;50628;51.008;13.658;2023-03-13T05:56:31;98573.63;;;8.74;100.00
64292;BME280;50628;51.008;13.658;2023-03-13T06:01:53;98566.63;;;8.84;100.00
64292;BME280;50628;51.008;13.658;2023-03-13T06:07:05;98562.94;;;8.86;100.00
64292;BME280;50628;51.008;13.658;2023-03-13T06:12:08;98552.78;;;9.03;100.00
64292;BME280;50628;51.008;13.658;2023-03-13T06:17:10;98559.44;;;9.15;100.00
64292;BME280;50628;51.008;13.658;2023-03-13T06:22:15;98545.63;;;9.15;100.00
64292;BME280;50628;51.008;13.658;2023-03-13T06:27:17;98540.16;;;9.18;100.00
64292;BME280;50628;51.008;13.658;2023-03-13T06:32:18;98523.19;;;9.23;100.00
64292;BME280;50628;51.008;13.658;2023-03-13T06:37:22;98519.06;;;9.30;100.00
64292;BME280;50628;51.008;13.658;2023-03-13T06:42:24;98497.31;;;9.49;100.00
64292;BME280;50628;51.008;13.658;2023-03-13T06:47:25;98494.16;;;9.56;100.00
64292;BME280;50628;51.008;13.658;2023-03-13T06:52:29;98490.22;;;9.51;100.00
64292;BME280;50628;51.008;13.658;2023-03-13T06:57:31;98483.22;;;9.52;100.00
64292;BME280;50628;51.008;13.658;2023-03-13T07:02:32;98487.97;;;9.57;100.00
64292;BME280;50628;51.008;13.658;2023-03-13T07:07:36;98487.41;;;9.63;100.00
64292;BME280;50628;51.008;13.658;2023-03-13T07:12:38;98483.09;;;9.71;100.00
64292;BME280;50628;51.008;13.658;2023-03-13T07:17:39;98463.91;;;9.72;100.00
64292;BME280;50628;51.008;13.658;2023-03-13T07:22:43;98451.59;;;9.74;100.00
64292;BME280;50628;51.008;13.658;2023-03-13T07:27:45;98454.94;;;9.67;100.00
64292;BME280;50628;51.008;13.658;2023-03-13T07:32:51;98438.19;;;9.61;100.00
64292;BME280;50628;51.008;13.658;2023-03-13T07:37:54;98445.38;;;9.49;100.00
64292;BME280;50628;51.008;13.658;2023-03-13T07:42:56;98435.34;;;9.37;100.00
64292;BME280;50628;51.008;13.658;2023-03-13T07:47:58;98403.75;;;9.41;100.00
64292;BME280;50628;51.008;13.658;2023-03-13T07:53:01;98389.16;;;9.40;100.00
64292;BME280;50628;51.008;13.658;2023-03-13T07:58:03;98393.22;;;9.43;100.00
64292;BME280;50628;51.008;13.658;2023-03-13T08:03:05;98386.94;;;9.45;100.00
64292;BME280;50628;51.008;13.658;2023-03-13T08:08:08;98389.78;;;9.42;100.00
64292;BME280;50628;51.008;13.658;2023-03-13T08:13:10;98385.81;;;9.48;100.00
64292;BME280;50628;51.008;13.658;2023-03-13T08:18:12;98405.22;;;9.62;100.00
64292;BME280;50628;51.008;13.658;2023-03-13T08:23:15;98410.41;;;9.62;100.00
64292;BME280;50628;51.008;13.658;2023-03-13T08:28:17;98411.34;;;9.52;100.00
64292;BME280;50628;51.008;13.658;2023-03-13T08:33:19;98410.50;;;9.52;100.00
64292;BME280;50628;51.008;13.658;2023-03-13T08:38:22;98415.91;;;9.59;100.00
64292;BME280;50628;51.008;13.658;2023-03-13T08:43:24;98421.22;;;9.75;100.00
64292;BME280;50628;51.008;13.658;2023-03-13T08:48:26;98443.41;;;9.87;100.00
64292;BME280;50628;51.008;13.658;2023-03-13T08:53:29;98438.94;;;9.97;100.00
64292;BME280;50628;51.008;13.658;2023-03-13T08:58:32;98436.09;;;10.09;100.00
64292;BME280;50628;51.008;13.658;2023-03-13T09:03:34;98404.00;;;10.18;100.00
64292;BME280;50628;51.008;13.658;2023-03-13T09:08:38;98399.66;;;10.27;100.00
64292;BME280;50628;51.008;13.658;2023-03-13T09:13:41;98404.31;;;10.41;100.00
64292;BME280;50628;51.008;13.658;2023-03-13T09:18:44;98392.16;;;10.50;100.00
64292;BME280;50628;51.008;13.658;2023-03-13T09:23:48;98390.88;;;10.54;100.00
64292;BME280;50628;51.008;13.658;2023-03-13T09:28:50;98409.13;;;10.62;100.00
64292;BME280;50628;51.008;13.658;2023-03-13T09:33:52;98413.84;;;10.67;100.00
64292;BME280;50628;51.008;13.658;2023-03-13T09:38:57;98409.94;;;10.71;100.00
64292;BME280;50628;51.008;13.658;2023-03-13T09:44:03;98409.00;;;10.72;100.00
64292;BME280;50628;51.008;13.658;2023-03-13T09:49:15;98389.22;;;10.95;100.00
64292;BME280;50628;51.008;13.658;2023-03-13T09:54:27;98385.03;;;11.19;100.00
64292;BME280;50628;51.008;13.658;2023-03-13T09:59:36;98383.44;;;11.42;100.00
64292;BME280;50628;51.008;13.658;2023-03-13T10:04:49;98375.13;;;11.55;100.00
64292;BME280;50628;51.008;13.658;2023-03-13T10:09:54;98370.22;;;11.60;100.00
64292;BME280;50628;51.008;13.658;2023-03-13T10:15:06;98367.47;;;11.70;100.00
64292;BME280;50628;51.008;13.658;2023-03-13T10:20:22;98353.25;;;11.81;100.00
64292;BME280;50628;51.008;13.658;2023-03-13T10:25:29;98355.25;;;11.87;100.00
64292;BME280;50628;51.008;13.658;2023-03-13T10:30:34;98334.38;;;11.95;100.00
64292;BME280;50628;51.008;13.658;2023-03-13T10:35:40;98358.63;;;12.04;100.00
64292;BME280;50628;51.008;13.658;2023-03-13T10:40:55;98331.84;;;12.18;100.00
64292;BME280;50628;51.008;13.658;2023-03-13T10:45:58;98343.84;;;12.36;100.00
64292;BME280;50628;51.008;13.658;2023-03-13T10:51:00;98358.47;;;12.53;100.00
64292;BME280;50628;51.008;13.658;2023-03-13T10:56:10;98340.03;;;12.86;100.00
64292;BME280;50628;51.008;13.658;2023-03-13T11:01:17;98333.16;;;13.08;100.00
64292;BME280;50628;51.008;13.658;2023-03-13T11:06:31;98330.16;;;13.42;100.00
64292;BME280;50628;51.008;13.658;2023-03-13T11:11:45;98354.34;;;13.44;100.00
64292;BME280;50628;51.008;13.658;2023-03-13T11:16:49;98346.63;;;13.51;100.00
64292;BME280;50628;51.008;13.658;2023-03-13T11:22:01;98349.84;;;13.53;100.00
64292;BME280;50628;51.008;13.658;2023-03-13T11:27:14;98359.13;;;13.55;100.00
64292;BME280;50628;51.008;13.658;2023-03-13T11:32:22;98360.72;;;13.41;100.00
64292;BME280;50628;51.008;13.658;2023-03-13T11:37:27;98357.81;;;13.36;100.00
64292;BME280;50628;51.008;13.658;2023-03-13T11:42:47;98362.84;;;13.38;100.00
64292;BME280;50628;51.008;13.658;2023-03-13T11:47:56;98359.03;;;13.26;100.00
64292;BME280;50628;51.008;13.658;2023-03-13T11:53:24;98360.50;;;13.20;100.00
64292;BME280;50628;51.008;13.658;2023-03-13T11:58:48;98357.63;;;13.15;100.00
64292;BME280;50628;51.008;13.658;2023-03-13T12:03:57;98351.22;;;13.17;100.00
64292;BME280;50628;51.008;13.658;2023-03-13T12:09:08;98329.16;;;13.20;100.00
64292;BME280;50628;51.008;13.658;2023-03-13T12:14:16;98317.25;;;13.17;100.00
64292;BME280;50628;51.008;13.658;2023-03-13T12:19:24;98305.63;;;13.28;100.00
64292;BME280;50628;51.008;13.658;2023-03-13T12:24:32;98297.56;;;13.53;100.00
64292;BME280;50628;51.008;13.658;2023-03-13T12:29:45;98250.78;;;14.02;100.00
64292;BME280;50628;51.008;13.658;2023-03-13T12:34:58;98234.03;;;14.33;100.00
64292;BME280;50628;51.008;13.658;2023-03-13T12:40:06;98211.91;;;14.36;100.00
64292;BME280;50628;51.008;13.658;2023-03-13T12:45:16;98219.03;;;14.57;100.00
64292;BME280;50628;51.008;13.658;2023-03-13T12:50:28;98206.53;;;14.80;100.00
64292;BME280;50628;51.008;13.658;2023-03-13T12:55:51;98227.81;;;14.92;100.00
64292;BME280;50628;51.008;13.658;2023-03-13T13:01:02;98219.44;;;15.03;100.00
64292;BME280;50628;51.008;13.658;2023-03-13T13:06:08;98230.44;;;15.20;100.00
64292;BME280;50628;51.008;13.658;2023-03-13T13:11:47;98216.53;;;15.20;100.00
64292;BME280;50628;51.008;13.658;2023-03-13T13:16:53;98211.13;;;15.97;100.00
64292;BME280;50628;51.008;13.658;2023-03-13T13:27:45;98207.34;;;17.21;100.00
64292;BME280;50628;51.008;13.658;2023-03-13T13:32:50;98205.03;;;17.71;100.00
64292;BME280;50628;51.008;13.658;2023-03-13T13:37:52;98176.22;;;17.05;100.00
64292;BME280;50628;51.008;13.658;2023-03-13T13:43:21;98166.03;;;16.42;100.00
64292;BME280;50628;51.008;13.658;2023-03-13T13:48:29;98179.16;;;16.35;100.00
64292;BME280;50628;51.008;13.658;2023-03-13T13:53:42;98180.34;;;16.33;100.00
64292;BME280;50628;51.008;13.658;2023-03-13T13:58:45;98192.91;;;16.44;100.00
64292;BME280;50628;51.008;13.658;2023-03-13T14:03:50;98207.25;;;16.41;100.00
64292;BME280;50628;51.008;13.658;2023-03-13T14:08:55;98220.50;;;16.81;100.00
64292;BME280;50628;51.008;13.658;2023-03-13T14:14:16;98217.25;;;17.13;100.00
64292;BME280;50628;51.008;13.658;2023-03-13T14:19:25;98198.22;;;17.44;100.00
64292;BME280;50628;51.008;13.658;2023-03-13T14:24:28;98197.00;;;17.33;100.00
64292;BME280;50628;51.008;13.658;2023-03-13T14:29:30;98183.88;;;17.26;100.00
64292;BME280;50628;51.008;13.658;2023-03-13T14:34:34;98179.81;;;16.51;100.00
64292;BME280;50628;51.008;13.658;2023-03-13T14:39:37;98172.28;;;16.34;100.00
64292;BME280;50628;51.008;13.658;2023-03-13T14:44:46;98166.59;;;16.11;100.00
64292;BME280;50628;51.008;13.658;2023-03-13T14:49:56;98158.50;;;16.06;100.00
64292;BME280;50628;51.008;13.658;2023-03-13T14:55:00;98167.72;;;15.95;100.00
64292;BME280;50628;51.008;13.658;2023-03-13T15:00:29;98161.06;;;15.92;100.00
64292;BME280;50628;51.008;13.658;2023-03-13T15:05:33;98152.97;;;15.87;100.00
64292;BME280;50628;51.008;13.658;2023-03-13T15:10:35;98144.88;;;15.75;100.00
64292;BME280;50628;51.008;13.658;2023-03-13T15:15:37;98150.44;;;15.66;100.00
64292;BME280;50628;51.008;13.658;2023-03-13T15:20:41;98151.44;;;15.58;100.00
64292;BME280;50628;51.008;13.658;2023-03-13T15:25:43;98131.81;;;15.47;100.00
64292;BME280;50628;51.008;13.658;2023-03-13T15:30:47;98118.84;;;15.39;100.00
64292;BME280;50628;51.008;13.658;2023-03-13T15:35:50;98124.66;;;15.34;100.00
64292;BME280;50628;51.008;13.658;2023-03-13T15:40:52;98111.56;;;15.34;100.00
64292;BME280;50628;51.008;13.658;2023-03-13T15:45:54;98096.44;;;15.36;100.00
64292;BME280;50628;51.008;13.658;2023-03-13T15:51:00;98087.47;;;15.59;100.00
64292;BME280;50628;51.008;13.658;2023-03-13T15:56:12;98075.44;;;15.71;100.00
64292;BME280;50628;51.008;13.658;2023-03-13T16:01:16;98075.25;;;15.73;100.00
64292;BME280;50628;51.008;13.658;2023-03-13T16:06:21;98068.53;;;15.64;100.00
64292;BME280;50628;51.008;13.658;2023-03-13T16:11:31;98048.31;;;15.51;100.00
64292;BME280;50628;51.008;13.658;2023-03-13T16:16:33;98046.63;;;15.30;100.00
64292;BME280;50628;51.008;13.658;2023-03-13T16:21:37;98029.84;;;15.18;100.00
64292;BME280;50628;51.008;13.658;2023-03-13T16:26:42;98028.16;;;15.03;100.00
64292;BME280;50628;51.008;13.658;2023-03-13T16:31:44;98010.59;;;14.97;100.00
64292;BME280;50628;51.008;13.658;2023-03-13T16:36:47;98003.91;;;14.88;100.00
64292;BME280;50628;51.008;13.658;2023-03-13T16:41:49;97995.88;;;14.89;100.00
64292;BME280;50628;51.008;13.658;2023-03-13T16:46:51;97987.56;;;14.79;100.00
64292;BME280;50628;51.008;13.658;2023-03-13T16:51:54;97975.00;;;14.68;100.00
64292;BME280;50628;51.008;13.658;2023-03-13T16:56:57;97966.25;;;14.54;100.00
64292;BME280;50628;51.008;13.658;2023-03-13T17:02:00;97964.44;;;14.55;100.00
64292;BME280;50628;51.008;13.658;2023-03-13T17:07:10;97961.75;;;14.48;100.00
64292;BME280;50628;51.008;13.658;2023-03-13T17:12:17;97963.72;;;14.39;100.00
64292;BME280;50628;51.008;13.658;2023-03-13T17:17:20;97963.72;;;14.39;100.00
64292;BME280;50628;51.008;13.658;2023-03-13T17:22:24;97945.16;;;14.34;100.00
64292;BME280;50628;51.008;13.658;2023-03-13T17:27:26;97950.16;;;14.29;100.00
64292;BME280;50628;51.008;13.658;2023-03-13T17:32:28;97955.91;;;14.18;100.00
64292;BME280;50628;51.008;13.658;2023-03-13T17:37:32;97962.09;;;14.10;100.00
64292;BME280;50628;51.008;13.658;2023-03-13T17:42:35;97966.28;;;14.04;100.00
64292;BME280;50628;51.008;13.658;2023-03-13T17:47:38;97957.56;;;13.97;100.00
64292;BME280;50628;51.008;13.658;2023-03-13T17:52:42;97954.88;;;13.91;100.00
64292;BME280;50628;51.008;13.658;2023-03-13T17:57:44;97936.16;;;13.87;100.00
64292;BME280;50628;51.008;13.658;2023-03-13T18:02:47;97940.13;;;13.83;100.00
64292;BME280;50628;51.008;13.658;2023-03-13T18:07:55;97924.03;;;13.79;100.00
64292;BME280;50628;51.008;13.658;2023-03-13T18:12:57;97919.66;;;13.87;100.00
64292;BME280;50628;51.008;13.658;2023-03-13T18:17:59;97914.81;;;13.83;100.00
64292;BME280;50628;51.008;13.658;2023-03-13T18:23:02;97912.56;;;13.80;100.00
64292;BME280;50628;51.008;13.658;2023-03-13T18:28:04;97912.84;;;13.64;100.00
64292;BME280;50628;51.008;13.658;2023-03-13T18:33:06;97897.06;;;13.51;100.00
64292;BME280;50628;51.008;13.658;2023-03-13T18:38:09;97896.34;;;13.42;100.00
64292;BME280;50628;51.008;13.658;2023-03-13T18:43:13;97896.81;;;13.46;100.00
64292;BME280;50628;51.008;13.658;2023-03-13T18:48:15;97888.38;;;13.50;100.00
64292;BME280;50628;51.008;13.658;2023-03-13T18:53:18;97886.94;;;13.48;100.00
64292;BME280;50628;51.008;13.658;2023-03-13T18:58:20;97877.13;;;13.50;100.00
64292;BME280;50628;51.008;13.658;2023-03-13T19:03:22;97874.13;;;13.53;100.00
64292;BME280;50628;51.008;13.658;2023-03-13T19:08:25;97875.94;;;13.52;100.00
64292;BME280;50628;51.008;13.658;2023-03-13T19:13:27;97878.13;;;13.49;100.00
64292;BME280;50628;51.008;13.658;2023-03-13T19:18:34;97891.59;;;13.46;100.00
64292;BME280;50628;51.008;13.658;2023-03-13T19:23:37;97913.03;;;13.41;100.00
64292;BME280;50628;51.008;13.658;2023-03-13T19:28:39;97992.84;;;13.58;100.00
64292;BME280;50628;51.008;13.658;2023-03-13T19:33:41;98119.13;;;13.44;100.00
64292;BME280;50628;51.008;13.658;2023-03-13T19:38:44;98059.38;;;12.82;100.00
64292;BME280;50628;51.008;13.658;2023-03-13T19:43:46;98057.88;;;12.49;100.00
64292;BME280;50628;51.008;13.658;2023-03-13T19:48:50;98056.47;;;12.24;100.00
64292;BME280;50628;51.008;13.658;2023-03-13T19:53:54;98039.69;;;12.03;100.00
64292;BME280;50628;51.008;13.658;2023-03-13T19:58:58;98013.44;;;11.82;100.00
64292;BME280;50628;51.008;13.658;2023-03-13T20:04:00;98023.19;;;11.57;100.00
64292;BME280;50628;51.008;13.658;2023-03-13T20:09:05;97988.53;;;11.48;100.00
64292;BME280;50628;51.008;13.658;2023-03-13T20:14:08;97998.84;;;11.41;100.00
64292;BME280;50628;51.008;13.658;2023-03-13T20:19:10;97985.47;;;11.21;100.00
64292;BME280;50628;51.008;13.658;2023-03-13T20:24:13;97975.44;;;11.02;100.00
64292;BME280;50628;51.008;13.658;2023-03-13T20:29:15;97962.69;;;10.84;100.00
64292;BME280;50628;51.008;13.658;2023-03-13T20:34:17;97932.94;;;10.70;100.00
64292;BME280;50628;51.008;13.658;2023-03-13T20:39:20;97908.88;;;10.68;100.00
64292;BME280;50628;51.008;13.658;2023-03-13T20:44:23;97902.72;;;10.69;100.00
64292;BME280;50628;51.008;13.658;2023-03-13T20:49:25;97865.78;;;10.74;100.00
64292;BME280;50628;51.008;13.658;2023-03-13T20:54:28;97873.06;;;10.78;100.00
64292;BME280;50628;51.008;13.658;2023-03-13T20:59:30;97864.28;;;10.79;100.00
64292;BME280;50628;51.008;13.658;2023-03-13T21:04:32;97869.66;;;10.78;100.00
64292;BME280;50628;51.008;13.658;2023-03-13T21:09:35;97860.38;;;10.83;100.00
64292;BME280;50628;51.008;13.658;2023-03-13T21:14:37;97862.44;;;10.88;100.00
64292;BME280;50628;51.008;13.658;2023-03-13T21:19:39;97872.75;;;10.81;100.00
64292;BME280;50628;51.008;13.658;2023-03-13T21:24:46;97875.22;;;10.75;100.00
64292;BME280;50628;51.008;13.658;2023-03-13T21:29:47;97858.13;;;10.72;100.00
64292;BME280;50628;51.008;13.658;2023-03-13T21:34:51;97836.41;;;10.88;100.00
64292;BME280;50628;51.008;13.658;2023-03-13T21:39:54;97825.31;;;10.94;100.00
64292;BME280;50628;51.008;13.658;2023-03-13T21:44:56;97847.31;;;10.92;100.00
64292;BME280;50628;51.008;13.658;2023-03-13T21:49:58;97841.81;;;10.87;100.00
64292;BME280;50628;51.008;13.658;2023-03-13T21:55:02;97850.63;;;10.77;100.00
64292;BME280;50628;51.008;13.658;2023-03-13T22:00:05;97849.22;;;10.67;100.00
64292;BME280;50628;51.008;13.658;2023-03-13T22:05:08;97867.94;;;10.62;100.00
64292;BME280;50628;51.008;13.658;2023-03-13T22:10:11;97884.72;;;10.59;100.00
64292;BME280;50628;51.008;13.658;2023-03-13T22:15:13;97892.06;;;10.56;100.00
64292;BME280;50628;51.008;13.658;2023-03-13T22:20:15;97887.22;;;10.45;100.00
64292;BME280;50628;51.008;13.658;2023-03-13T22:25:18;97889.44;;;10.56;100.00
64292;BME280;50628;51.008;13.658;2023-03-13T22:30:20;97895.41;;;10.65;100.00
64292;BME280;50628;51.008;13.658;2023-03-13T22:35:22;97899.78;;;10.72;100.00
64292;BME280;50628;51.008;13.658;2023-03-13T22:40:25;97913.78;;;10.71;100.00
64292;BME280;50628;51.008;13.658;2023-03-13T22:45:27;97920.94;;;10.69;100.00
64292;BME280;50628;51.008;13.658;2023-03-13T22:50:29;97933.00;;;10.62;100.00
64292;BME280;50628;51.008;13.658;2023-03-13T22:55:33;97932.84;;;10.55;100.00
64292;BME280;50628;51.008;13.658;2023-03-13T23:00:34;97929.94;;;10.50;100.00
64292;BME280;50628;51.008;13.658;2023-03-13T23:05:37;97919.38;;;10.52;100.00
64292;BME280;50628;51.008;13.658;2023-03-13T23:10:42;97919.72;;;10.40;100.00
64292;BME280;50628;51.008;13.658;2023-03-13T23:15:44;97905.91;;;10.40;100.00
64292;BME280;50628;51.008;13.658;2023-03-13T23:20:46;97896.63;;;10.46;100.00
64292;BME280;50628;51.008;13.658;2023-03-13T23:25:49;97888.16;;;10.52;100.00
64292;BME280;50628;51.008;13.658;2023-03-13T23:30:51;97863.75;;;10.53;100.00
64292;BME280;50628;51.008;13.658;2023-03-13T23:35:53;97804.72;;;10.61;100.00
64292;BME280;50628;51.008;13.658;2023-03-13T23:40:56;97753.78;;;10.67;100.00
64292;BME280;50628;51.008;13.658;2023-03-13T23:45:58;97694.06;;;10.74;100.00
64292;BME280;50628;51.008;13.658;2023-03-13T23:51:04;97658.34;;;10.82;100.00
64292;BME280;50628;51.008;13.658;2023-03-13T23:56:08;97668.00;;;10.97;100.00
